createdAt,value
2022-12-29T00:00:33.564Z,2.08
2022-12-29T00:05:34.897Z,1.88
2022-12-29T00:10:36.223Z,3.38
2022-12-29T00:15:37.681Z,2.42
2022-12-29T00:20:59.432Z,4.68
2022-12-29T00:26:23.081Z,1.65
2022-12-29T00:31:50.575Z,3.15
2022-12-29T00:36:52.027Z,4.10
2022-12-29T00:42:12.230Z,3.70
2022-12-29T00:47:13.615Z,2.33
2022-12-29T00:52:15.589Z,2.97
2022-12-29T00:57:16.962Z,4.07
2022-12-29T01:02:19.552Z,2.42
2022-12-29T01:07:21.035Z,2.97
2022-12-29T01:12:41.166Z,1.50
2022-12-29T01:17:42.921Z,5.40
2022-12-29T01:22:44.695Z,1.50
2022-12-29T01:27:46.104Z,1.10
2022-12-29T01:32:47.433Z,3.35
2022-12-29T01:37:48.751Z,0.80
2022-12-29T01:42:50.219Z,1.55
2022-12-29T01:47:55.468Z,2.75
2022-12-29T01:53:08.471Z,2.38
2022-12-29T01:58:11.849Z,2.85
2022-12-29T02:03:13.586Z,3.60
2022-12-29T02:08:15.773Z,3.63
2022-12-29T02:13:18.383Z,1.75
2022-12-29T02:18:31.759Z,0.82
2022-12-29T02:24:05.213Z,2.30
2022-12-29T02:29:15.535Z,1.67
2022-12-29T02:34:24.123Z,1.25
2022-12-29T02:39:46.920Z,0.45
2022-12-29T02:44:57.829Z,0.70
2022-12-29T02:50:15.949Z,1.30
2022-12-29T02:55:17.360Z,1.30
2022-12-29T03:00:19.654Z,1.30
2022-12-29T03:05:52.168Z,1.25
2022-12-29T03:11:04.361Z,1.65
2022-12-29T03:16:16.500Z,0.75
2022-12-29T03:21:53.223Z,0.93
2022-12-29T03:26:58.294Z,1.13
2022-12-29T03:32:02.507Z,1.30
2022-12-29T03:37:11.320Z,4.20
2022-12-29T03:42:16.061Z,0.43
2022-12-29T03:47:17.430Z,0.80
2022-12-29T03:52:19.035Z,2.15
2022-12-29T03:57:20.365Z,2.20
2022-12-29T04:02:22.161Z,2.63
2022-12-29T04:07:23.669Z,1.25
2022-12-29T04:12:24.984Z,1.85
2022-12-29T04:17:26.320Z,2.28
2022-12-29T04:22:27.616Z,1.27
2022-12-29T04:27:28.919Z,2.85
2022-12-29T04:32:30.233Z,2.35
2022-12-29T04:37:31.544Z,1.95
2022-12-29T04:42:33.000Z,1.58
2022-12-29T04:47:34.337Z,0.70
2022-12-29T04:52:36.207Z,4.43
2022-12-29T04:57:37.768Z,1.25
2022-12-29T05:02:39.498Z,2.65
2022-12-29T05:07:41.008Z,3.15
2022-12-29T05:12:42.447Z,0.65
2022-12-29T05:17:43.771Z,0.40
2022-12-29T05:22:45.317Z,1.90
2022-12-29T05:27:46.656Z,0.85
2022-12-29T05:32:47.990Z,2.88
2022-12-29T05:37:49.384Z,2.55
2022-12-29T05:42:50.746Z,2.83
2022-12-29T05:47:52.087Z,0.65
2022-12-29T05:52:53.455Z,3.47
2022-12-29T05:57:54.798Z,0.75
2022-12-29T06:02:56.248Z,1.20
2022-12-29T06:07:57.796Z,2.97
2022-12-29T06:12:59.331Z,2.25
2022-12-29T06:18:00.703Z,1.80
2022-12-29T06:23:02.038Z,3.63
2022-12-29T06:28:03.844Z,7.07
2022-12-29T06:33:05.281Z,2.80
2022-12-29T06:38:06.882Z,1.90
2022-12-29T06:43:08.463Z,2.15
2022-12-29T06:48:09.882Z,0.65
2022-12-29T06:53:11.213Z,3.28
2022-12-29T06:58:12.766Z,1.77
2022-12-29T07:03:14.200Z,2.65
2022-12-29T07:08:15.547Z,0.63
2022-12-29T07:13:16.853Z,0.98
2022-12-29T07:18:18.580Z,4.25
2022-12-29T07:23:19.895Z,3.17
2022-12-29T07:28:21.234Z,3.83
2022-12-29T07:33:22.575Z,1.98
2022-12-29T07:38:23.991Z,4.90
2022-12-29T07:43:25.882Z,2.78
2022-12-29T07:48:27.258Z,2.85
2022-12-29T07:53:28.659Z,4.38
2022-12-29T07:58:30.108Z,6.45
2022-12-29T08:03:31.426Z,3.22
2022-12-29T08:08:32.902Z,4.25
2022-12-29T08:13:34.806Z,4.65
2022-12-29T08:18:36.136Z,2.65
2022-12-29T08:23:37.543Z,2.58
2022-12-29T08:28:38.924Z,3.42
2022-12-29T08:33:40.368Z,3.13
2022-12-29T08:38:41.719Z,3.00
2022-12-29T08:43:46.974Z,2.95
2022-12-29T08:48:48.760Z,2.63
2022-12-29T08:53:50.149Z,3.85
2022-12-29T08:58:53.061Z,2.53
2022-12-29T09:04:14.183Z,3.78
2022-12-29T09:09:16.976Z,1.70
2022-12-29T09:14:18.279Z,2.63
2022-12-29T09:19:19.629Z,5.35
2022-12-29T09:24:20.959Z,6.03
2022-12-29T09:29:22.785Z,3.58
2022-12-29T09:34:24.267Z,2.38
2022-12-29T09:39:28.113Z,3.30
2022-12-29T09:44:47.534Z,3.95
2022-12-29T09:50:01.602Z,4.00
2022-12-29T09:55:27.025Z,1.48
2022-12-29T10:00:41.883Z,4.90
2022-12-29T10:05:51.714Z,4.20
2022-12-29T10:11:00.008Z,3.88
2022-12-29T10:16:26.922Z,3.35
2022-12-29T10:21:46.980Z,3.90
2022-12-29T10:26:51.419Z,1.25
2022-12-29T10:32:02.564Z,1.52
2022-12-29T10:37:15.423Z,1.83
2022-12-29T10:42:38.601Z,2.40
2022-12-29T10:47:52.960Z,5.20
2022-12-29T10:52:57.486Z,3.08
2022-12-29T10:58:05.685Z,3.38
2022-12-29T11:03:22.814Z,2.63
2022-12-29T11:08:39.047Z,2.40
2022-12-29T11:13:52.007Z,2.00
2022-12-29T11:18:53.471Z,2.50
2022-12-29T11:24:03.740Z,0.40
2022-12-29T11:29:24.775Z,0.22
2022-12-29T11:34:34.931Z,3.22
2022-12-29T11:39:58.349Z,1.17
2022-12-29T11:45:21.805Z,2.50
2022-12-29T11:50:27.886Z,0.60
2022-12-29T11:55:30.394Z,1.00
2022-12-29T12:00:35.707Z,2.55
2022-12-29T12:05:53.454Z,3.30
2022-12-29T12:11:19.599Z,2.75
2022-12-29T12:16:32.333Z,2.13
2022-12-29T12:21:45.358Z,1.13
2022-12-29T12:27:13.857Z,0.95
2022-12-29T12:32:25.942Z,1.05
2022-12-29T12:38:21.386Z,1.50
2022-12-29T12:43:51.758Z,2.63
2022-12-29T12:49:22.559Z,1.75
2022-12-29T12:54:39.927Z,3.35
2022-12-29T12:59:44.091Z,2.22
2022-12-29T13:05:10.722Z,3.33
2022-12-29T13:10:27.575Z,1.60
2022-12-29T13:15:54.752Z,3.00
2022-12-29T13:21:18.526Z,0.83
2022-12-29T13:26:33.758Z,1.83
2022-12-29T13:31:42.756Z,0.60
2022-12-29T13:36:49.186Z,0.75
2022-12-29T13:41:56.371Z,1.92
2022-12-29T13:47:01.107Z,0.75
2022-12-29T13:52:33.501Z,1.70
2022-12-29T13:57:48.487Z,3.42
2022-12-29T14:02:57.067Z,1.17
2022-12-29T14:08:05.133Z,2.05
2022-12-29T14:13:13.974Z,1.35
2022-12-29T14:18:17.333Z,1.00
2022-12-29T14:23:41.795Z,1.13
2022-12-29T14:28:46.461Z,3.53
2022-12-29T14:34:06.616Z,4.00
2022-12-29T14:39:40.337Z,4.18
2022-12-29T14:44:51.074Z,2.85
2022-12-29T14:49:53.210Z,2.60
2022-12-29T14:55:00.063Z,2.33
2022-12-29T15:00:27.509Z,1.08
2022-12-29T15:05:41.915Z,3.60
2022-12-29T15:11:06.462Z,2.28
2022-12-29T15:16:26.650Z,3.45
2022-12-29T15:21:36.446Z,6.40
2022-12-29T15:26:41.271Z,6.00
2022-12-29T15:31:49.703Z,1.83
2022-12-29T15:36:51.843Z,2.75
2022-12-29T15:42:34.992Z,2.67
2022-12-29T15:47:41.275Z,3.80
2022-12-29T15:52:44.326Z,3.50
2022-12-29T15:57:45.868Z,4.60
2022-12-29T16:02:50.426Z,3.28
2022-12-29T16:07:57.823Z,1.60
2022-12-29T16:13:26.380Z,2.05
2022-12-29T16:18:32.023Z,4.90
2022-12-29T16:23:37.107Z,5.00
2022-12-29T16:28:44.354Z,2.35
2022-12-29T16:33:48.890Z,1.77
2022-12-29T16:38:50.401Z,2.47
2022-12-29T16:44:13.592Z,4.22
2022-12-29T16:49:21.361Z,3.63
2022-12-29T16:54:34.586Z,3.28
2022-12-29T16:59:43.454Z,4.13
2022-12-29T17:04:49.228Z,2.53
2022-12-29T17:09:53.948Z,1.98
2022-12-29T17:14:58.902Z,3.33
2022-12-29T17:20:19.139Z,4.35
2022-12-29T17:25:29.878Z,2.53
2022-12-29T17:30:34.540Z,2.45
2022-12-29T17:35:36.557Z,1.63
2022-12-29T17:40:38.061Z,5.75
2022-12-29T17:45:40.674Z,2.28
2022-12-29T17:50:42.484Z,2.90
2022-12-29T17:55:43.801Z,2.63
2022-12-29T18:00:46.664Z,3.15
2022-12-29T18:05:49.658Z,4.05
2022-12-29T18:10:53.772Z,4.55
2022-12-29T18:15:55.921Z,5.20
2022-12-29T18:20:59.581Z,2.00
2022-12-29T18:26:37.623Z,7.40
2022-12-29T18:31:39.078Z,4.20
2022-12-29T18:36:40.663Z,1.42
2022-12-29T18:41:41.990Z,4.53
2022-12-29T18:46:43.376Z,8.73
2022-12-29T18:51:44.931Z,5.07
2022-12-29T18:56:46.264Z,6.60
2022-12-29T19:01:47.920Z,6.10
2022-12-29T19:06:49.385Z,6.00
2022-12-29T19:11:50.857Z,3.78
2022-12-29T19:16:52.208Z,4.47
2022-12-29T19:21:56.394Z,5.75
2022-12-29T19:26:57.891Z,7.22
2022-12-29T19:31:59.256Z,3.75
2022-12-29T19:37:00.600Z,2.20
2022-12-29T19:42:05.275Z,6.68
2022-12-29T19:47:07.010Z,4.45
2022-12-29T19:52:08.327Z,4.57
2022-12-29T19:57:09.740Z,5.50
2022-12-29T20:02:33.426Z,8.52
2022-12-29T20:07:35.500Z,8.77
2022-12-29T20:12:38.199Z,9.00
2022-12-29T20:18:11.796Z,17.67
2022-12-29T20:23:00.848Z,12.15
2022-12-29T20:28:02.225Z,5.00
2022-12-29T20:33:08.053Z,6.80
2022-12-29T20:38:10.174Z,11.23
2022-12-29T20:43:11.901Z,7.68
2022-12-29T20:48:13.298Z,5.55
2022-12-29T20:53:14.731Z,5.13
2022-12-29T20:58:24.387Z,10.43
2022-12-29T21:03:26.252Z,6.43
2022-12-29T21:08:30.150Z,10.90
2022-12-29T21:13:32.347Z,14.10
2022-12-29T21:18:34.575Z,8.57
2022-12-29T21:23:39.100Z,10.25
2022-12-29T21:28:41.472Z,5.47
2022-12-29T21:33:42.853Z,7.13
2022-12-29T21:38:44.381Z,8.98
2022-12-29T21:44:15.965Z,6.65
2022-12-29T21:49:17.368Z,7.35
2022-12-29T21:54:55.080Z,7.65
2022-12-29T22:00:14.988Z,7.93
2022-12-29T22:05:34.934Z,4.40
2022-12-29T22:16:05.775Z,7.10
2022-12-29T22:21:11.671Z,6.32
2022-12-29T22:26:14.689Z,5.50
2022-12-29T22:31:30.661Z,9.15
2022-12-29T22:36:33.458Z,5.82
2022-12-29T22:41:37.156Z,5.00
2022-12-29T22:46:38.938Z,3.42
2022-12-29T22:51:40.599Z,9.57
2022-12-29T22:56:42.541Z,5.90
2022-12-29T23:01:44.369Z,6.50
2022-12-29T23:06:46.441Z,8.98
2022-12-29T23:11:50.046Z,7.80
2022-12-29T23:16:51.718Z,4.90
2022-12-29T23:22:10.415Z,9.80
2022-12-29T23:27:37.877Z,12.98
2022-12-29T23:32:39.627Z,8.02
2022-12-29T23:37:40.980Z,12.32
2022-12-29T23:42:42.311Z,6.10
2022-12-29T23:47:43.627Z,5.72
2022-12-29T23:52:45.391Z,4.65
2022-12-29T23:57:46.839Z,3.85
